Time;durP1;ratioP1;P1;durP2;ratioP2;P2;SDS_P1;SDS_P2;PMS_P1;PMS_P2;Temp;Humidity;BMP_temperature;BMP_pressure;BME280_temperature;BME280_humidity;BME280_pressure;Samples;Min_cycle;Max_cycle;Signal;HPM_P1;HPM_P2
2023/04/08 00:00:30;;;;;;;21.23;14.10;;;7.90;99.90;;;;;;5030215;28;20252;-72
2023/04/08 00:02:56;;;;;;;19.17;13.00;;;7.90;99.90;;;;;;5030989;28;20187;-73
2023/04/08 00:05:21;;;;;;;19.10;13.60;;;7.90;99.90;;;;;;5030803;28;20178;-73
2023/04/08 00:07:47;;;;;;;18.67;14.10;;;7.90;99.90;;;;;;5030802;28;20235;-73
2023/04/08 00:10:13;;;;;;;18.37;12.80;;;7.90;99.90;;;;;;5030836;28;20188;-73
2023/04/08 00:12:38;;;;;;;20.73;13.83;;;7.90;99.90;;;;;;5030741;28;20516;-72
2023/04/08 00:15:04;;;;;;;17.37;13.03;;;7.90;99.90;;;;;;5030853;28;20186;-72
2023/04/08 00:17:30;;;;;;;19.80;14.40;;;8.00;99.90;;;;;;5030727;28;20196;-73
2023/04/08 00:19:55;;;;;;;18.10;13.20;;;8.00;99.90;;;;;;5030606;28;20935;-73
2023/04/08 00:22:21;;;;;;;18.67;13.23;;;7.90;99.90;;;;;;5030794;28;20199;-73
2023/04/08 00:24:46;;;;;;;20.30;15.00;;;7.90;99.90;;;;;;5029350;28;20735;-72
2023/04/08 00:27:12;;;;;;;22.80;13.50;;;7.90;99.90;;;;;;5030596;28;20188;-72
2023/04/08 00:29:37;;;;;;;21.27;14.30;;;7.90;99.90;;;;;;5034045;28;20616;-72
2023/04/08 00:32:03;;;;;;;16.73;12.40;;;7.90;99.90;;;;;;5034438;28;20210;-73
2023/04/08 00:34:29;;;;;;;18.27;12.60;;;7.90;99.90;;;;;;5034586;28;20558;-73
2023/04/08 00:36:55;;;;;;;19.90;12.70;;;7.90;99.90;;;;;;5034686;28;20419;-73
2023/04/08 00:39:20;;;;;;;19.40;12.80;;;7.80;99.90;;;;;;5034701;28;20186;-72
2023/04/08 00:41:46;;;;;;;20.70;12.20;;;7.80;99.90;;;;;;5034424;28;20247;-73
2023/04/08 00:44:11;;;;;;;21.10;13.50;;;7.80;99.90;;;;;;5034156;28;20218;-73
2023/04/08 00:46:39;;;;;;;20.47;13.63;;;7.80;99.90;;;;;;5033953;28;20177;-73
2023/04/08 00:49:08;;;;;;;20.60;13.27;;;7.70;99.90;;;;;;5034612;28;20177;-72
2023/04/08 00:51:37;;;;;;;19.90;13.70;;;7.80;99.90;;;;;;5034426;28;20444;-73
2023/04/08 00:54:03;;;;;;;18.33;13.43;;;7.80;99.90;;;;;;5034525;28;20463;-73
2023/04/08 00:56:30;;;;;;;19.70;13.73;;;7.80;99.90;;;;;;5034087;28;20413;-73
2023/04/08 00:58:56;;;;;;;18.27;12.93;;;7.80;99.90;;;;;;5034201;28;20434;-74
2023/04/08 02:32:00;;;;;;;22.87;16.27;;;7.60;99.90;;;;;;5427039;22;20493;-72
2023/04/08 02:34:26;;;;;;;23.70;16.03;;;7.60;99.90;;;;;;5011069;28;20440;-71
2023/04/08 02:36:52;;;;;;;21.33;13.83;;;7.50;99.90;;;;;;5012234;28;20441;-73
2023/04/08 02:39:18;;;;;;;23.60;14.80;;;7.50;99.90;;;;;;5011616;28;20521;-72
2023/04/08 02:41:43;;;;;;;20.33;15.63;;;7.50;99.90;;;;;;5012198;28;20694;-73
2023/04/08 02:44:09;;;;;;;25.07;16.50;;;7.50;99.90;;;;;;5012163;28;20222;-73
2023/04/08 02:46:35;;;;;;;26.37;16.50;;;7.40;99.90;;;;;;5003439;28;20190;-73
2023/04/08 02:49:00;;;;;;;25.90;15.30;;;7.40;99.90;;;;;;5011774;28;20524;-73
2023/04/08 02:51:26;;;;;;;24.87;16.33;;;7.30;99.90;;;;;;5011460;28;20204;-73
2023/04/08 02:53:52;;;;;;;25.00;16.37;;;7.30;99.90;;;;;;5011771;28;20232;-73
2023/04/08 02:56:17;;;;;;;22.80;14.63;;;7.30;99.90;;;;;;5011312;28;20466;-73
2023/04/08 02:58:43;;;;;;;25.70;15.20;;;7.30;99.90;;;;;;5011737;28;20810;-73
2023/04/08 03:01:08;;;;;;;24.60;15.43;;;7.30;99.90;;;;;;5011650;28;20216;-73
2023/04/08 03:03:34;;;;;;;23.47;16.43;;;7.30;99.90;;;;;;5009281;28;20212;-74
2023/04/08 03:06:00;;;;;;;30.17;16.60;;;7.30;99.90;;;;;;5010861;28;20217;-73
2023/04/08 03:08:25;;;;;;;31.23;18.30;;;7.30;99.90;;;;;;5011403;28;20200;-73
2023/04/08 03:10:51;;;;;;;29.20;16.53;;;7.20;99.90;;;;;;5011425;28;20238;-74
2023/04/08 03:13:16;;;;;;;27.20;18.10;;;7.20;99.90;;;;;;5011411;28;20262;-73
2023/04/08 03:15:42;;;;;;;27.93;17.27;;;7.20;99.90;;;;;;5011491;28;20226;-72
2023/04/08 03:18:08;;;;;;;23.87;14.83;;;7.20;99.90;;;;;;5011516;28;20279;-73
2023/04/08 03:20:34;;;;;;;31.43;17.37;;;7.20;99.90;;;;;;5011059;28;20240;-73
2023/04/08 03:22:59;;;;;;;26.03;15.33;;;7.20;99.90;;;;;;5011663;28;20201;-73
2023/04/08 03:25:25;;;;;;;26.63;16.57;;;7.20;99.90;;;;;;5011451;28;20184;-73
2023/04/08 03:27:50;;;;;;;32.07;16.93;;;7.20;99.90;;;;;;5011259;28;20192;-72
2023/04/08 03:30:16;;;;;;;26.60;17.43;;;7.20;99.90;;;;;;5011015;28;20189;-74
2023/04/08 03:32:41;;;;;;;28.40;16.90;;;7.20;99.90;;;;;;5011112;28;20188;-73
2023/04/08 03:35:07;;;;;;;31.50;17.40;;;7.20;99.90;;;;;;5011538;28;20201;-73
2023/04/08 03:37:33;;;;;;;29.07;17.17;;;7.20;99.90;;;;;;5010975;28;20212;-74
2023/04/08 03:39:58;;;;;;;25.23;15.30;;;7.20;99.90;;;;;;5011064;28;20438;-75
2023/04/08 03:42:24;;;;;;;28.50;15.83;;;7.20;99.90;;;;;;5011118;28;20212;-74
2023/04/08 03:44:49;;;;;;;27.17;15.80;;;7.20;99.90;;;;;;5011111;28;20269;-73
2023/04/08 03:47:15;;;;;;;27.77;17.43;;;7.20;99.90;;;;;;5011003;28;20180;-74
2023/04/08 03:49:40;;;;;;;24.63;16.20;;;7.20;99.90;;;;;;5011201;28;20542;-73
2023/04/08 03:52:06;;;;;;;29.10;16.27;;;7.20;99.90;;;;;;5011341;28;20211;-74
2023/04/08 03:54:32;;;;;;;25.60;15.80;;;7.20;99.90;;;;;;5011129;28;20764;-73
2023/04/08 03:56:57;;;;;;;34.87;15.93;;;7.20;99.90;;;;;;5011073;28;20188;-74
2023/04/08 03:59:23;;;;;;;28.10;16.33;;;7.20;99.90;;;;;;5010007;28;20203;-74
2023/04/08 04:01:50;;;;;;;31.17;16.90;;;7.20;99.90;;;;;;5010805;28;20959;-74
2023/04/08 04:04:15;;;;;;;24.47;15.87;;;7.20;99.90;;;;;;5014018;28;20240;-72
2023/04/08 04:06:41;;;;;;;27.17;15.37;;;7.20;99.90;;;;;;5014906;28;20459;-74
2023/04/08 04:09:06;;;;;;;27.60;15.70;;;7.30;99.90;;;;;;5015058;28;20213;-74
2023/04/08 04:11:34;;;;;;;27.33;15.80;;;7.30;99.90;;;;;;5014736;28;20304;-74
2023/04/08 04:14:00;;;;;;;30.47;16.87;;;7.30;99.90;;;;;;5015238;28;20237;-74
2023/04/08 04:16:25;;;;;;;28.30;17.33;;;7.30;99.90;;;;;;5013391;28;20963;-74
2023/04/08 04:18:52;;;;;;;27.37;17.00;;;7.20;99.90;;;;;;5014760;28;20291;-75
2023/04/08 04:21:18;;;;;;;27.90;16.10;;;7.20;99.90;;;;;;5014634;28;20213;-73
2023/04/08 04:23:43;;;;;;;29.13;16.37;;;7.20;99.90;;;;;;5014881;28;21072;-74
2023/04/08 04:26:09;;;;;;;33.73;18.33;;;7.20;99.90;;;;;;5014899;28;20514;-74
2023/04/08 04:28:35;;;;;;;34.00;17.73;;;7.10;99.90;;;;;;5014551;28;20254;-73
2023/04/08 04:31:01;;;;;;;32.00;17.03;;;7.10;99.90;;;;;;5014569;28;20888;-73
2023/04/08 04:33:26;;;;;;;35.03;18.20;;;7.00;99.90;;;;;;5013837;28;20195;-73
2023/04/08 04:35:52;;;;;;;25.13;15.77;;;6.90;99.90;;;;;;5014427;28;20199;-74
2023/04/08 04:38:17;;;;;;;31.90;17.93;;;6.90;99.90;;;;;;5014240;28;20209;-72
2023/04/08 04:40:43;;;;;;;29.60;17.97;;;6.80;99.90;;;;;;5012951;28;20275;-73
2023/04/08 04:43:08;;;;;;;31.63;18.43;;;6.70;99.90;;;;;;5014480;28;20285;-74
2023/04/08 04:45:34;;;;;;;36.67;18.70;;;6.70;99.90;;;;;;5014308;28;20192;-74
2023/04/08 04:47:59;;;;;;;30.03;17.50;;;6.70;99.90;;;;;;5014212;28;20697;-74
2023/04/08 04:50:25;;;;;;;40.03;19.00;;;6.70;99.90;;;;;;5014163;28;20183;-72
2023/04/08 04:52:50;;;;;;;33.17;17.73;;;6.60;99.90;;;;;;5014286;28;20200;-72
2023/04/08 04:55:16;;;;;;;29.13;18.50;;;6.60;99.90;;;;;;5014280;28;20196;-73
2023/04/08 04:57:43;;;;;;;26.00;16.97;;;6.50;99.90;;;;;;5013987;28;20194;-71
2023/04/08 05:00:09;;;;;;;30.60;17.20;;;6.50;99.90;;;;;;5014172;28;20272;-72
2023/04/08 05:02:35;;;;;;;28.40;17.43;;;6.40;99.90;;;;;;5013915;28;20533;-73
2023/04/08 05:05:00;;;;;;;34.30;19.00;;;6.40;99.90;;;;;;5014040;28;20466;-73
2023/04/08 05:07:26;;;;;;;27.17;17.90;;;6.40;99.90;;;;;;5013899;28;20199;-74
2023/04/08 05:09:52;;;;;;;28.13;16.00;;;6.40;99.90;;;;;;5014196;28;20664;-75
2023/04/08 05:12:19;;;;;;;28.97;18.03;;;6.40;99.90;;;;;;5015497;28;20217;-73
2023/04/08 05:14:45;;;;;;;32.43;17.60;;;6.40;99.90;;;;;;5015059;28;20808;-74
2023/04/08 05:17:10;;;;;;;34.43;19.10;;;6.40;99.90;;;;;;5014372;28;20435;-73
2023/04/08 05:19:36;;;;;;;32.40;18.47;;;6.40;99.90;;;;;;5014360;28;20617;-74
2023/04/08 05:22:02;;;;;;;29.80;17.87;;;6.40;99.90;;;;;;5014754;28;20283;-72
2023/04/08 05:24:27;;;;;;;32.30;18.33;;;6.40;99.90;;;;;;5014362;28;20256;-73
2023/04/08 05:26:53;;;;;;;28.43;16.97;;;6.40;99.90;;;;;;5013864;28;20196;-74
2023/04/08 05:29:20;;;;;;;38.87;19.10;;;6.40;99.90;;;;;;5014033;28;20638;-73
2023/04/08 05:31:46;;;;;;;32.90;18.63;;;6.40;99.90;;;;;;5005561;28;20229;-73
2023/04/08 05:34:12;;;;;;;31.67;19.30;;;6.40;99.90;;;;;;5013967;28;20927;-73
2023/04/08 05:36:37;;;;;;;29.13;18.80;;;6.50;99.90;;;;;;5013223;28;20422;-73
2023/04/08 05:39:03;;;;;;;28.03;18.53;;;6.50;99.90;;;;;;5012167;28;20196;-74
2023/04/08 05:41:28;;;;;;;31.87;19.87;;;6.60;99.90;;;;;;5013419;28;20324;-73
2023/04/08 05:43:54;;;;;;;28.13;19.43;;;6.70;99.90;;;;;;5013248;28;20275;-73
2023/04/08 05:46:20;;;;;;;39.20;21.53;;;6.70;99.90;;;;;;5013409;28;20190;-74
2023/04/08 05:48:45;;;;;;;34.23;21.07;;;6.90;99.90;;;;;;5013103;28;20221;-73
2023/04/08 05:51:15;;;;;;;35.27;19.57;;;6.90;99.90;;;;;;5013267;28;20590;-73
2023/04/08 05:53:40;;;;;;;33.57;21.03;;;7.00;99.90;;;;;;5012552;28;20199;-73
2023/04/08 05:56:06;;;;;;;33.13;20.40;;;7.00;99.90;;;;;;5013218;28;20440;-72
2023/04/08 05:58:32;;;;;;;31.73;18.50;;;7.10;99.90;;;;;;5011497;28;20262;-73
2023/04/08 06:00:57;;;;;;;32.00;18.90;;;7.20;99.90;;;;;;5012887;28;20223;-73
2023/04/08 06:03:23;;;;;;;32.73;19.67;;;7.20;99.90;;;;;;5012058;28;20274;-73
2023/04/08 06:05:49;;;;;;;33.97;19.87;;;7.30;99.90;;;;;;5012993;28;20190;-72
2023/04/08 06:08:15;;;;;;;34.60;21.60;;;7.30;99.90;;;;;;5014326;28;20533;-72
2023/04/08 06:10:48;;;;;;;33.00;20.87;;;7.30;99.90;;;;;;5012582;28;20686;-72
2023/04/08 06:13:13;;;;;;;28.93;19.20;;;7.30;99.90;;;;;;5013645;28;20506;-72
2023/04/08 06:15:39;;;;;;;32.30;19.97;;;7.40;99.90;;;;;;5013165;28;21006;-71
2023/04/08 06:18:04;;;;;;;29.37;19.07;;;7.50;99.90;;;;;;5013763;28;20261;-72
2023/04/08 06:20:30;;;;;;;32.03;18.27;;;7.60;99.90;;;;;;5011101;28;20191;-73
2023/04/08 06:22:56;;;;;;;32.27;19.70;;;7.60;99.90;;;;;;5013749;28;20687;-71
2023/04/08 06:25:22;;;;;;;28.50;17.60;;;7.60;99.90;;;;;;5013133;28;20189;-72
2023/04/08 06:27:47;;;;;;;25.97;17.77;;;7.70;99.90;;;;;;5005738;28;20438;-73
2023/04/08 06:30:13;;;;;;;30.23;19.40;;;7.80;99.90;;;;;;5014575;28;20279;-73
2023/04/08 06:32:38;;;;;;;27.17;17.63;;;7.80;99.90;;;;;;5012856;28;20661;-72
2023/04/08 06:35:04;;;;;;;26.90;18.33;;;7.90;99.90;;;;;;5013219;28;20208;-73
2023/04/08 06:37:30;;;;;;;25.27;17.40;;;8.00;99.90;;;;;;5013315;28;20196;-72
2023/04/08 06:39:55;;;;;;;28.93;18.60;;;8.10;99.90;;;;;;5013465;28;20441;-72
2023/04/08 06:42:21;;;;;;;25.87;17.67;;;8.20;99.90;;;;;;5012686;28;20217;-74
2023/04/08 06:44:46;;;;;;;29.87;17.33;;;8.10;99.90;;;;;;5012450;28;20224;-72
2023/04/08 06:47:12;;;;;;;27.30;18.50;;;8.10;99.90;;;;;;5012329;28;20182;-71
2023/04/08 06:49:37;;;;;;;26.90;17.87;;;8.20;99.90;;;;;;5013244;28;20551;-72
2023/04/08 06:52:05;;;;;;;29.20;16.93;;;8.20;99.90;;;;;;5012019;28;20220;-70
2023/04/08 06:54:31;;;;;;;29.43;16.90;;;8.20;99.90;;;;;;5012188;28;20280;-71
2023/04/08 06:56:56;;;;;;;27.03;18.10;;;8.30;99.90;;;;;;5012959;28;20841;-72
2023/04/08 06:59:22;;;;;;;25.20;17.13;;;8.30;99.90;;;;;;5011776;28;20198;-73
2023/04/08 07:01:47;;;;;;;28.83;17.90;;;8.30;99.90;;;;;;5011140;28;20223;-73
2023/04/08 07:04:13;;;;;;;26.07;16.20;;;8.40;99.90;;;;;;5011381;28;20220;-73
2023/04/08 07:06:38;;;;;;;27.47;17.43;;;8.50;99.90;;;;;;5010266;28;20210;-73
2023/04/08 07:09:04;;;;;;;27.90;18.17;;;8.60;99.90;;;;;;5010365;28;20196;-71
2023/04/08 07:11:30;;;;;;;25.03;16.37;;;8.70;99.90;;;;;;5011240;28;20209;-72
2023/04/08 07:13:55;;;;;;;25.03;16.93;;;8.80;99.90;;;;;;5011690;28;20296;-73
2023/04/08 07:16:21;;;;;;;25.50;15.53;;;8.80;99.90;;;;;;5011380;28;20320;-72
2023/04/08 07:18:46;;;;;;;22.50;15.47;;;8.80;99.90;;;;;;5009722;28;20825;-72
2023/04/08 07:21:12;;;;;;;22.30;15.37;;;8.90;99.90;;;;;;5010709;28;20216;-72
2023/04/08 07:23:37;;;;;;;24.07;15.60;;;9.00;99.90;;;;;;5010958;28;20312;-72
2023/04/08 07:26:06;;;;;;;22.80;15.33;;;9.00;99.90;;;;;;5011436;28;20213;-73
2023/04/08 07:28:32;;;;;;;21.50;15.50;;;9.00;99.90;;;;;;5011160;28;20728;-75
2023/04/08 07:31:11;;;;;;;19.87;14.50;;;9.00;99.90;;;;;;5011145;28;20456;-73
2023/04/08 07:33:37;;;;;;;19.83;13.80;;;9.00;99.90;;;;;;5011135;28;20390;-72
2023/04/08 07:36:02;;;;;;;26.40;15.20;;;9.10;99.90;;;;;;5009910;28;20884;-73
2023/04/08 07:38:28;;;;;;;21.80;15.20;;;9.20;99.90;;;;;;5010147;28;20194;-71
2023/04/08 07:40:53;;;;;;;16.77;13.40;;;9.40;99.90;;;;;;5011101;28;20210;-73
2023/04/08 07:43:19;;;;;;;21.00;14.33;;;9.70;99.90;;;;;;5011266;28;20324;-73
2023/04/08 07:45:45;;;;;;;20.43;15.07;;;10.00;99.90;;;;;;5011014;28;20625;-74
2023/04/08 07:48:10;;;;;;;19.03;13.37;;;10.30;99.90;;;;;;5011189;28;20782;-71
2023/04/08 07:50:36;;;;;;;19.40;12.70;;;10.60;99.90;;;;;;5010900;28;20505;-73
2023/04/08 07:53:02;;;;;;;17.83;13.43;;;10.60;99.90;;;;;;5011028;28;20333;-73
2023/04/08 07:55:32;;;;;;;17.20;12.83;;;10.70;99.90;;;;;;5010931;28;20998;-72
2023/04/08 07:57:57;;;;;;;16.33;12.23;;;10.80;99.90;;;;;;5010669;28;20274;-74
2023/04/08 08:00:23;;;;;;;16.87;12.67;;;10.80;99.90;;;;;;5010835;28;20542;-73
2023/04/08 08:02:48;;;;;;;15.30;11.87;;;10.90;99.90;;;;;;5010545;28;20187;-73
2023/04/08 08:05:14;;;;;;;16.07;12.93;;;10.80;99.90;;;;;;5010699;28;20721;-75
2023/04/08 08:07:40;;;;;;;17.67;13.10;;;10.80;99.90;;;;;;5010591;28;20182;-70
2023/04/08 08:10:06;;;;;;;17.90;12.40;;;10.80;99.90;;;;;;5010787;28;20214;-70
2023/04/08 08:12:31;;;;;;;13.67;11.60;;;10.70;99.90;;;;;;5010711;28;20623;-72
2023/04/08 08:14:57;;;;;;;17.00;13.37;;;10.80;99.90;;;;;;5009603;28;20434;-72
2023/04/08 08:17:24;;;;;;;18.33;13.33;;;10.80;99.90;;;;;;5010762;28;20663;-73
2023/04/08 08:19:49;;;;;;;17.10;13.50;;;11.00;99.90;;;;;;5010460;28;20961;-72
2023/04/08 08:22:15;;;;;;;15.43;12.17;;;10.90;99.90;;;;;;5010860;28;20457;-72
2023/04/08 08:24:41;;;;;;;16.17;13.47;;;11.00;99.90;;;;;;5010721;28;20487;-74
2023/04/08 08:27:09;;;;;;;15.50;12.80;;;11.00;99.90;;;;;;5010441;28;20551;-73
2023/04/08 08:29:36;;;;;;;19.43;13.13;;;11.00;99.90;;;;;;5010078;28;20477;-72
2023/04/08 08:32:02;;;;;;;17.47;13.47;;;11.10;99.90;;;;;;5010282;28;20461;-71
2023/04/08 08:34:28;;;;;;;21.20;13.00;;;11.10;99.90;;;;;;5010928;28;20437;-72
2023/04/08 08:36:54;;;;;;;15.43;13.57;;;11.20;99.90;;;;;;5010306;28;20487;-74
2023/04/08 08:39:20;;;;;;;24.43;14.87;;;11.30;99.90;;;;;;5010733;28;20265;-72
2023/04/08 08:41:45;;;;;;;18.27;14.00;;;11.40;99.90;;;;;;5010436;28;20533;-73
2023/04/08 08:44:12;;;;;;;18.60;13.13;;;11.70;99.90;;;;;;5010657;28;20268;-73
2023/04/08 08:46:43;;;;;;;13.90;11.73;;;11.90;99.90;;;;;;5010407;28;20606;-73
2023/04/08 08:49:08;;;;;;;17.17;14.00;;;12.30;99.90;;;;;;5010601;28;20962;-74
2023/04/08 08:51:34;;;;;;;17.87;13.60;;;12.50;99.90;;;;;;5012005;28;20445;-73
2023/04/08 08:54:03;;;;;;;16.47;13.37;;;12.70;99.90;;;;;;5014056;28;20221;-73
2023/04/08 08:56:29;;;;;;;20.60;14.20;;;12.90;99.90;;;;;;5013906;28;20437;-74
2023/04/08 08:58:55;;;;;;;17.30;14.03;;;12.80;99.90;;;;;;5013836;28;20491;-72
2023/04/08 09:01:35;;;;;;;15.13;13.40;;;12.70;99.90;;;;;;5019558;28;20449;-73
2023/04/08 09:04:09;;;;;;;16.90;13.83;;;12.60;99.90;;;;;;5006319;28;20206;-72
2023/04/08 09:06:36;;;;;;;15.30;12.33;;;12.70;99.90;;;;;;5013678;28;20452;-71
2023/04/08 09:09:04;;;;;;;19.80;13.20;;;12.90;99.90;;;;;;5013628;28;20487;-74
2023/04/08 09:11:30;;;;;;;17.43;13.20;;;13.00;99.90;;;;;;5013863;28;20528;-73
2023/04/08 09:13:56;;;;;;;16.40;12.70;;;13.30;99.90;;;;;;5013525;28;21002;-74
2023/04/08 09:16:22;;;;;;;14.03;12.53;;;13.30;99.90;;;;;;5013734;28;20265;-72
2023/04/08 09:18:48;;;;;;;14.63;13.13;;;13.40;99.90;;;;;;5013577;28;20199;-73
2023/04/08 09:21:18;;;;;;;15.20;12.77;;;13.40;99.90;;;;;;5013483;28;20446;-73
2023/04/08 09:23:45;;;;;;;16.47;13.47;;;13.40;99.90;;;;;;5013432;28;20475;-73
2023/04/08 09:26:15;;;;;;;15.80;13.83;;;13.10;99.90;;;;;;5013730;28;20426;-73
2023/04/08 09:28:43;;;;;;;15.17;13.60;;;13.20;99.90;;;;;;5013577;28;20479;-72
2023/04/08 09:31:25;;;;;;;14.23;12.73;;;13.30;99.90;;;;;;5012655;28;21201;-72
2023/04/08 09:33:54;;;;;;;14.57;12.80;;;13.60;99.90;;;;;;5013052;28;20441;-72
2023/04/08 09:36:19;;;;;;;13.30;11.87;;;13.50;99.90;;;;;;5013137;28;20865;-72
2023/04/08 09:38:45;;;;;;;15.07;13.47;;;13.60;99.90;;;;;;5012917;28;20528;-70
2023/04/08 09:41:22;;;;;;;15.07;12.50;;;13.70;99.90;;;;;;5012793;28;20206;-72
2023/04/08 09:43:53;;;;;;;14.47;12.90;;;13.80;99.90;;;;;;5012822;28;20526;-73
2023/04/08 09:46:26;;;;;;;14.33;12.83;;;13.80;99.90;;;;;;5013147;28;20762;-72
2023/04/08 09:49:08;;;;;;;15.87;12.50;;;13.70;99.90;;;;;;5011799;28;20532;-73
2023/04/08 09:52:06;;;;;;;16.00;12.70;;;13.60;99.90;;;;;;5013124;28;20963;-72
2023/04/08 09:54:48;;;;;;;16.17;13.27;;;13.40;99.90;;;;;;4993156;28;20484;-72
2023/04/08 09:57:20;;;;;;;14.10;12.30;;;13.40;99.90;;;;;;5006541;28;20524;-71
2023/04/08 09:59:55;;;;;;;17.70;13.33;;;13.50;99.90;;;;;;5012724;28;20438;-72
2023/04/08 10:02:32;;;;;;;16.27;12.83;;;13.80;99.90;;;;;;5010903;28;20456;-70
2023/04/08 10:04:59;;;;;;;18.70;13.80;;;14.10;99.90;;;;;;5012167;28;20461;-70
2023/04/08 10:07:25;;;;;;;18.60;12.50;;;14.70;99.90;;;;;;5012889;28;20516;-72
2023/04/08 10:09:51;;;;;;;12.83;11.50;;;14.90;99.90;;;;;;5012376;28;20580;-73
2023/04/08 10:12:17;;;;;;;15.00;13.37;;;15.10;99.90;;;;;;5015209;28;20480;-73
2023/04/08 10:15:25;;;;;;;13.53;11.43;;;15.20;99.90;;;;;;5013612;28;20198;-72
2023/04/08 10:17:53;;;;;;;17.17;12.30;;;14.90;99.90;;;;;;5011873;28;20425;-73
2023/04/08 10:20:33;;;;;;;14.47;12.97;;;14.60;99.90;;;;;;5012562;28;20433;-72
2023/04/08 10:23:00;;;;;;;14.50;12.33;;;14.60;99.90;;;;;;5012445;28;20432;-72
2023/04/08 10:25:32;;;;;;;14.37;12.87;;;14.40;99.90;;;;;;5012536;28;20465;-72
2023/04/08 10:28:22;;;;;;;12.80;11.50;;;13.90;99.90;;;;;;5011774;28;20792;-72
2023/04/08 10:30:49;;;;;;;15.83;12.83;;;13.70;99.90;;;;;;5011497;28;20564;-71
2023/04/08 10:33:18;;;;;;;16.23;13.83;;;13.40;99.90;;;;;;5011604;28;20439;-72
2023/04/08 10:35:47;;;;;;;14.73;12.83;;;13.10;99.90;;;;;;5011418;28;20924;-72
2023/04/08 10:38:14;;;;;;;15.55;13.95;;;13.00;99.90;;;;;;5009349;28;20414;-73
2023/04/08 10:40:41;;;;;;;16.47;13.00;;;12.80;99.90;;;;;;5011663;28;20179;-72
2023/04/08 10:43:11;;;;;;;14.17;12.80;;;12.80;99.90;;;;;;5012046;28;20424;-72
2023/04/08 10:45:37;;;;;;;15.13;13.63;;;12.70;99.90;;;;;;5020328;28;20453;-72
2023/04/08 10:48:21;;;;;;;17.63;13.10;;;12.60;99.90;;;;;;5011595;28;20425;-71
2023/04/08 10:50:58;;;;;;;15.53;12.93;;;12.60;99.90;;;;;;5011820;28;20487;-70
2023/04/08 10:53:35;;;;;;;18.03;12.50;;;12.50;99.90;;;;;;5012033;28;20439;-75
2023/04/08 10:56:13;;;;;;;15.33;12.03;;;12.60;99.90;;;;;;5011660;28;20425;-72
2023/04/08 10:58:56;;;;;;;14.87;12.33;;;12.40;99.90;;;;;;5011685;28;20410;-71
2023/04/08 11:01:22;;;;;;;15.43;12.13;;;12.20;99.90;;;;;;5011897;28;20446;-72
2023/04/08 11:03:48;;;;;;;14.43;11.70;;;12.10;99.90;;;;;;5011433;28;20874;-72
2023/04/08 11:06:14;;;;;;;13.80;12.37;;;12.00;99.90;;;;;;5011268;28;20899;-70
2023/04/08 11:08:40;;;;;;;15.77;12.40;;;12.00;99.90;;;;;;5011603;28;20922;-72
2023/04/08 11:11:10;;;;;;;14.73;11.47;;;12.00;99.90;;;;;;5011192;28;20460;-72
2023/04/08 11:13:40;;;;;;;13.80;12.17;;;11.90;99.90;;;;;;5011207;28;20685;-72
2023/04/08 11:16:07;;;;;;;17.60;13.47;;;11.90;99.90;;;;;;5010727;28;20417;-72
2023/04/08 11:18:38;;;;;;;15.67;11.73;;;12.00;99.90;;;;;;5011351;28;20425;-73
2023/04/08 11:21:07;;;;;;;14.93;12.63;;;11.90;99.90;;;;;;5011160;28;20457;-71
2023/04/08 11:23:33;;;;;;;16.40;12.83;;;12.00;99.90;;;;;;5011486;28;20505;-74
2023/04/08 11:25:59;;;;;;;15.60;13.30;;;12.10;99.90;;;;;;5011196;28;20535;-72
2023/04/08 11:28:25;;;;;;;13.93;12.47;;;12.00;99.90;;;;;;5011307;28;20183;-72
2023/04/08 11:30:52;;;;;;;15.60;12.00;;;12.00;99.90;;;;;;5011039;28;20265;-72
2023/04/08 11:33:17;;;;;;;12.07;10.77;;;12.00;99.90;;;;;;5011276;28;20422;-72
2023/04/08 11:35:43;;;;;;;13.60;11.47;;;12.00;99.90;;;;;;5011166;28;20936;-70
2023/04/08 11:38:11;;;;;;;17.10;12.03;;;11.90;99.90;;;;;;5010949;28;20222;-72
2023/04/08 11:40:37;;;;;;;16.70;12.07;;;11.90;99.90;;;;;;5011057;28;20424;-73
2023/04/08 11:43:10;;;;;;;14.67;12.47;;;12.00;99.90;;;;;;5010750;28;20425;-72
2023/04/08 11:45:40;;;;;;;13.30;11.90;;;12.00;99.90;;;;;;5011023;28;20186;-72
2023/04/08 11:48:10;;;;;;;15.00;12.73;;;11.80;99.90;;;;;;5011009;28;20500;-71
2023/04/08 11:50:36;;;;;;;14.90;12.77;;;11.80;99.90;;;;;;5009951;28;20471;-72
2023/04/08 11:53:02;;;;;;;16.37;13.27;;;11.80;99.90;;;;;;5010617;28;20422;-71
2023/04/08 11:55:32;;;;;;;15.80;11.97;;;11.90;99.90;;;;;;5010967;28;20197;-72
2023/04/08 11:58:06;;;;;;;15.93;13.40;;;11.90;99.90;;;;;;5010831;28;20194;-72
2023/04/08 12:00:31;;;;;;;15.77;12.50;;;11.90;99.90;;;;;;5010706;28;20429;-71
2023/04/08 12:02:57;;;;;;;14.80;13.17;;;11.90;99.90;;;;;;5010485;28;20487;-73
2023/04/08 12:05:23;;;;;;;13.90;12.00;;;12.00;99.90;;;;;;5010433;28;20872;-72
2023/04/08 12:07:48;;;;;;;13.97;12.43;;;12.00;99.90;;;;;;5010831;28;20183;-72
2023/04/08 12:10:14;;;;;;;16.50;12.33;;;12.00;99.90;;;;;;5010849;28;20193;-73
2023/04/08 12:12:39;;;;;;;15.03;12.43;;;12.00;99.90;;;;;;5010955;28;20702;-72
2023/04/08 12:15:10;;;;;;;14.83;12.50;;;12.00;99.90;;;;;;5010853;28;20655;-71
2023/04/08 12:17:37;;;;;;;13.70;12.40;;;11.70;99.90;;;;;;5011047;28;20559;-70
2023/04/08 12:20:03;;;;;;;16.43;11.90;;;11.70;99.90;;;;;;5010679;28;20449;-72
2023/04/08 12:22:29;;;;;;;15.83;13.07;;;11.80;99.90;;;;;;5010904;28;20453;-72
2023/04/08 12:24:54;;;;;;;14.90;12.23;;;11.90;99.90;;;;;;5013135;28;20476;-72
2023/04/08 12:27:20;;;;;;;13.60;12.20;;;11.80;99.90;;;;;;5014622;28;20777;-72
2023/04/08 12:29:45;;;;;;;16.90;13.47;;;11.80;99.90;;;;;;5014488;28;20282;-72
2023/04/08 12:32:11;;;;;;;13.90;12.07;;;12.00;99.90;;;;;;5014520;28;20691;-72
2023/04/08 12:34:37;;;;;;;19.47;17.40;;;12.00;99.90;;;;;;5015004;28;20194;-72
2023/04/08 12:37:02;;;;;;;13.97;12.23;;;11.90;99.90;;;;;;5014204;28;20264;-73
2023/04/08 12:39:28;;;;;;;15.60;11.93;;;12.00;99.90;;;;;;5014512;28;20266;-71
2023/04/08 12:41:53;;;;;;;16.60;12.83;;;12.00;99.90;;;;;;5014308;28;20298;-73
2023/04/08 12:44:19;;;;;;;14.73;11.87;;;12.00;99.90;;;;;;5014382;28;20282;-72
2023/04/08 12:46:45;;;;;;;15.40;12.77;;;12.00;99.90;;;;;;5014322;28;20191;-70
2023/04/08 12:49:11;;;;;;;15.70;12.27;;;11.90;99.90;;;;;;5014611;28;20778;-72
2023/04/08 12:51:37;;;;;;;14.00;12.60;;;11.90;99.90;;;;;;5014422;28;20209;-72
2023/04/08 12:54:02;;;;;;;14.93;12.23;;;11.90;99.90;;;;;;5014205;28;20433;-72
2023/04/08 12:56:29;;;;;;;15.13;12.17;;;11.90;99.90;;;;;;5014076;28;20191;-73
2023/04/08 12:58:56;;;;;;;14.10;11.90;;;11.90;99.90;;;;;;5014286;28;20277;-72
2023/04/08 13:01:22;;;;;;;14.67;12.00;;;11.90;99.90;;;;;;5013791;28;20445;-72
2023/04/08 13:03:47;;;;;;;12.87;11.47;;;11.90;99.90;;;;;;5013648;28;20476;-73
2023/04/08 13:06:13;;;;;;;11.90;10.70;;;11.90;99.90;;;;;;5013553;28;20198;-74
2023/04/08 13:08:38;;;;;;;12.93;11.47;;;11.90;99.90;;;;;;5014012;28;20186;-73
2023/04/08 13:11:04;;;;;;;17.33;13.60;;;12.00;99.90;;;;;;5013555;28;20210;-72
2023/04/08 13:13:30;;;;;;;15.73;11.67;;;11.90;99.90;;;;;;5013843;28;20179;-73
